This is the latest recevied weather packets stored in our database for station/object K7SKM. If no packets are shown the sender has not sent any weather packets the latest 10 day(s).
| Time | Temp. | Humidity | Pressure | Rain* | Wind** | Luminosity | Snow |
|---|---|---|---|---|---|---|---|
| 1777855807 | 29.44° C | 34% | 1013.5 hPa | 0 mm | - | 329 W/m² | - |
| 1777855504 | 28.89° C | 35% | 1013.7 hPa | 0 mm | - | 337 W/m² | - |
| 1777855201 | 28.33° C | 35% | 1013.8 hPa | 0 mm | - | 337 W/m² | - |
| 1777854896 | 28.89° C | 34% | 1013.5 hPa | 0 mm | - | 342 W/m² | - |
| 1777854594 | 29.44° C | 35% | 1013.7 hPa | 0 mm | - | 348 W/m² | - |
| 1777854291 | 30° C | 34% | 1013.7 hPa | 0 mm | - | 355 W/m² | - |
| 1777853988 | 29.44° C | 34% | 1013.7 hPa | 0 mm | - | 358 W/m² | - |
| 1777853686 | 28.89° C | 35% | 1013.9 hPa | 0 mm | - | 359 W/m² | - |
| 1777853382 | 28.89° C | 34% | 1013.9 hPa | 0 mm | - | 369 W/m² | - |
| 1777853079 | 30° C | 33% | 1013.9 hPa | 0 mm | - | 380 W/m² | - |
| 1777852776 | 30° C | 33% | 1014.1 hPa | 0 mm | - | 384 W/m² | - |
| 1777852474 | 28.89° C | 36% | 1014 hPa | 0 mm | - | 386 W/m² | - |
| 1777852171 | 28.89° C | 35% | 1014.3 hPa | 0 mm | - | 391 W/m² | - |
| 1777851869 | 28.33° C | 35% | 1014.2 hPa | 0 mm | - | 396 W/m² | - |
| 1777851567 | 28.89° C | 35% | 1014.3 hPa | 0 mm | - | 402 W/m² | - |
| 1777851263 | 29.44° C | 33% | 1014.1 hPa | 0 mm | - | 408 W/m² | - |
| 1777850960 | 28.89° C | 33% | 1014.3 hPa | 0 mm | - | 412 W/m² | - |
| 1777850657 | 29.44° C | 33% | 1014.5 hPa | 0 mm | - | 415 W/m² | - |
| 1777850354 | 30° C | 32% | 1014.7 hPa | 0 mm | - | 419 W/m² | - |
| 1777850051 | 28.89° C | 32% | 1014.6 hPa | 0 mm | - | 420 W/m² | - |
| 1777849748 | 29.44° C | 32% | 1014.6 hPa | 0 mm | - | 420 W/m² | - |
| 1777849444 | 28.33° C | 34% | 1014.6 hPa | 0 mm | - | 417 W/m² | - |
| 1777849142 | 28.33° C | 34% | 1014.7 hPa | 0 mm | - | 419 W/m² | - |
| 1777848838 | 27.78° C | 35% | 1014.7 hPa | 0 mm | - | 418 W/m² | - |
| 1777848534 | 27.78° C | 34% | 1014.9 hPa | 0 mm | - | 348 W/m² | - |
* Rain latest hour (hover to see other rain measurements)
** Current wind speed in m/s (hover to see current wind gust speed)